BLY9112 LFBE-EGGP
Flight info
| Callsign | BLY9112 |
|---|---|
| Flight time | 1h 29m |
| Altitude | 36000 |
| Route | VELIN DCT UVELI DCT CNA DCT MANAK UT183 BAGAD DCT MUREL DCT NOZHU DCT SHIRI DCT TOJAQ DCT EPACE DCT ACCOP DCT MOCQO P16 PEPZE |
| Aircraft | A320/M-SDE3FGHIRWY/LB1 |
Departure
| Time | 2026-04-26 18:23 |
|---|---|
| Airport | Bergerac Dordogne-Périgord airport (LFBE) |
Arrival
| Time | 2026-04-26 19:52 |
|---|---|
| Airport | Liverpool John Lennon Airport (EGGP) |
| Time | Latitude | Longitude | Altitude | Speed | Heading |
|---|---|---|---|---|---|
| 2026-04-26 17:27 | 44.82268 | 0.51588 | 177 ft | 0 kts | 313° |
| 2026-04-26 17:28 | 44.82267 | 0.51622 | 177 ft | 0 kts | 309° |
| 2026-04-26 18:17 | 44.82292 | 0.51624 | 177 ft | 7 kts | 19° |
| 2026-04-26 18:17 | 44.82300 | 0.51689 | 177 ft | 8 kts | 97° |
| 2026-04-26 18:18 | 44.82295 | 0.51784 | 177 ft | 11 kts | 94° |
| 2026-04-26 18:18 | 44.82289 | 0.51904 | 177 ft | 14 kts | 95° |
| 2026-04-26 18:18 | 44.82292 | 0.52031 | 177 ft | 11 kts | 42° |
| 2026-04-26 18:18 | 44.82308 | 0.52037 | 177 ft | 0 kts | 8° |
| 2026-04-26 18:19 | 44.82320 | 0.52039 | 177 ft | 8 kts | 7° |
| 2026-04-26 18:19 | 44.82407 | 0.52052 | 178 ft | 14 kts | 6° |
| 2026-04-26 18:20 | 44.82435 | 0.52167 | 178 ft | 15 kts | 95° |
| 2026-04-26 18:20 | 44.82425 | 0.52330 | 178 ft | 18 kts | 94° |
| 2026-04-26 18:20 | 44.82416 | 0.52521 | 177 ft | 21 kts | 94° |
| 2026-04-26 18:20 | 44.82408 | 0.52664 | 177 ft | 23 kts | 94° |
| 2026-04-26 18:21 | 44.82390 | 0.52993 | 176 ft | 26 kts | 95° |
| 2026-04-26 18:21 | 44.82417 | 0.53198 | 177 ft | 15 kts | 73° |
| 2026-04-26 18:21 | 44.82378 | 0.53214 | 177 ft | 12 kts | 272° |
| 2026-04-26 18:21 | 44.82381 | 0.53178 | 177 ft | 0 kts | 274° |
| 2026-04-26 18:22 | 44.82391 | 0.53011 | 176 ft | 49 kts | 274° |
| 2026-04-26 18:22 | 44.82435 | 0.52189 | 178 ft | 115 kts | 274° |
| 2026-04-26 18:23 | 44.82506 | 0.50850 | 325 ft | 148 kts | 274° |
| 2026-04-26 18:23 | 44.82590 | 0.49439 | 1042 ft | 143 kts | 275° |
| 2026-04-26 18:23 | 44.82668 | 0.48037 | 1690 ft | 143 kts | 276° |
| 2026-04-26 18:23 | 44.82748 | 0.46585 | 2083 ft | 160 kts | 276° |
| 2026-04-26 18:24 | 44.82838 | 0.44924 | 2387 ft | 181 kts | 277° |
| 2026-04-26 18:24 | 44.82938 | 0.43048 | 2655 ft | 204 kts | 276° |
| 2026-04-26 18:24 | 44.83331 | 0.41031 | 2984 ft | 227 kts | 307° |
| 2026-04-26 18:24 | 44.84449 | 0.39314 | 3464 ft | 250 kts | 315° |
| 2026-04-26 18:25 | 44.85650 | 0.37455 | 4231 ft | 263 kts | 312° |
| 2026-04-26 18:25 | 44.86854 | 0.35458 | 5123 ft | 270 kts | 311° |
| 2026-04-26 18:25 | 44.88074 | 0.33349 | 6050 ft | 277 kts | 309° |
| 2026-04-26 18:25 | 44.89288 | 0.31205 | 6960 ft | 282 kts | 309° |
| 2026-04-26 18:26 | 44.90513 | 0.29020 | 7906 ft | 285 kts | 309° |
| 2026-04-26 18:26 | 44.91746 | 0.26806 | 8817 ft | 289 kts | 308° |
| 2026-04-26 18:26 | 44.92989 | 0.24566 | 9797 ft | 290 kts | 308° |
| 2026-04-26 18:26 | 44.94242 | 0.22307 | 10549 ft | 299 kts | 308° |
| 2026-04-26 18:27 | 44.95577 | 0.19909 | 10830 ft | 323 kts | 308° |
| 2026-04-26 18:27 | 44.97030 | 0.17351 | 11126 ft | 342 kts | 312° |
| 2026-04-26 18:27 | 44.98838 | 0.15114 | 11732 ft | 350 kts | 326° |
| 2026-04-26 18:27 | 45.00947 | 0.13464 | 12427 ft | 354 kts | 333° |
| 2026-04-26 18:28 | 45.03195 | 0.11866 | 13177 ft | 358 kts | 333° |
| 2026-04-26 18:28 | 45.05439 | 0.10284 | 13888 ft | 362 kts | 334° |
| 2026-04-26 18:28 | 45.07715 | 0.08722 | 14548 ft | 365 kts | 334° |
| 2026-04-26 18:28 | 45.10021 | 0.07166 | 15197 ft | 368 kts | 334° |
| 2026-04-26 18:29 | 45.12350 | 0.05606 | 15836 ft | 371 kts | 334° |
| 2026-04-26 18:29 | 45.14697 | 0.04031 | 16445 ft | 375 kts | 334° |
| 2026-04-26 18:29 | 45.17062 | 0.02437 | 17063 ft | 379 kts | 334° |
| 2026-04-26 18:29 | 45.19449 | 0.00817 | 17700 ft | 382 kts | 334° |
| 2026-04-26 18:30 | 45.21851 | -0.00822 | 18343 ft | 385 kts | 333° |
| 2026-04-26 18:30 | 45.24280 | -0.02481 | 18894 ft | 389 kts | 333° |
| 2026-04-26 18:30 | 45.26727 | -0.04155 | 19438 ft | 393 kts | 333° |
| 2026-04-26 18:30 | 45.29201 | -0.05848 | 19972 ft | 396 kts | 333° |
| 2026-04-26 18:31 | 45.31694 | -0.07554 | 20550 ft | 400 kts | 332° |
| 2026-04-26 18:31 | 45.34207 | -0.09275 | 21110 ft | 402 kts | 333° |
| 2026-04-26 18:31 | 45.36739 | -0.11010 | 21627 ft | 406 kts | 333° |
| 2026-04-26 18:31 | 45.39290 | -0.12756 | 22124 ft | 409 kts | 333° |
| 2026-04-26 18:32 | 45.41868 | -0.14522 | 22618 ft | 412 kts | 333° |
| 2026-04-26 18:32 | 45.44495 | -0.16325 | 23120 ft | 415 kts | 333° |
| 2026-04-26 18:32 | 45.47107 | -0.18124 | 23615 ft | 418 kts | 333° |
| 2026-04-26 18:32 | 45.49735 | -0.19936 | 24038 ft | 421 kts | 333° |
| 2026-04-26 18:33 | 45.52380 | -0.21761 | 24459 ft | 424 kts | 333° |
| 2026-04-26 18:33 | 45.55038 | -0.23598 | 24889 ft | 425 kts | 332° |
| 2026-04-26 18:33 | 45.57707 | -0.25442 | 25315 ft | 427 kts | 333° |
| 2026-04-26 18:33 | 45.60386 | -0.27299 | 25749 ft | 429 kts | 332° |
| 2026-04-26 18:34 | 45.63072 | -0.29169 | 26158 ft | 431 kts | 332° |
| 2026-04-26 18:34 | 45.65735 | -0.31157 | 26563 ft | 432 kts | 327° |
| 2026-04-26 18:34 | 45.68186 | -0.33644 | 26975 ft | 433 kts | 320° |
| 2026-04-26 18:34 | 45.70556 | -0.36311 | 27419 ft | 435 kts | 320° |
| 2026-04-26 18:35 | 45.72954 | -0.39017 | 27584 ft | 443 kts | 320° |
| 2026-04-26 18:35 | 45.75395 | -0.41777 | 27717 ft | 451 kts | 320° |
| 2026-04-26 18:35 | 45.77879 | -0.44588 | 27853 ft | 459 kts | 320° |
| 2026-04-26 18:35 | 45.80402 | -0.47444 | 28027 ft | 464 kts | 320° |
| 2026-04-26 18:36 | 45.82941 | -0.50318 | 28395 ft | 466 kts | 320° |
| 2026-04-26 18:36 | 45.85483 | -0.53197 | 28897 ft | 465 kts | 320° |
| 2026-04-26 18:36 | 45.88012 | -0.56062 | 29441 ft | 463 kts | 320° |
| 2026-04-26 18:36 | 45.90536 | -0.58926 | 30005 ft | 461 kts | 320° |
| 2026-04-26 18:37 | 45.93078 | -0.61816 | 30529 ft | 459 kts | 320° |
| 2026-04-26 18:37 | 45.95547 | -0.64623 | 30945 ft | 459 kts | 320° |
| 2026-04-26 18:37 | 45.98087 | -0.67516 | 31315 ft | 460 kts | 320° |
| 2026-04-26 18:37 | 45.99749 | -0.69413 | 31588 ft | 460 kts | 320° |
| 2026-04-26 18:38 | 46.02253 | -0.72272 | 32040 ft | 459 kts | 320° |
| 2026-04-26 18:38 | 46.04745 | -0.75121 | 32512 ft | 458 kts | 320° |
| 2026-04-26 18:38 | 46.07234 | -0.77975 | 32995 ft | 456 kts | 320° |
| 2026-04-26 18:38 | 46.09709 | -0.80817 | 33464 ft | 455 kts | 319° |
| 2026-04-26 18:39 | 46.12181 | -0.83654 | 33924 ft | 454 kts | 319° |
| 2026-04-26 18:39 | 46.14651 | -0.86487 | 34369 ft | 453 kts | 319° |
| 2026-04-26 18:39 | 46.17141 | -0.89352 | 34804 ft | 451 kts | 319° |
| 2026-04-26 18:39 | 46.19591 | -0.92180 | 35228 ft | 450 kts | 319° |
| 2026-04-26 18:40 | 46.22028 | -0.94992 | 35670 ft | 449 kts | 319° |
| 2026-04-26 18:40 | 46.24469 | -0.97809 | 36054 ft | 449 kts | 319° |
| 2026-04-26 18:40 | 46.26905 | -1.00619 | 36172 ft | 448 kts | 319° |
| 2026-04-26 18:40 | 46.29338 | -1.03430 | 36190 ft | 447 kts | 319° |
| 2026-04-26 18:41 | 46.34191 | -1.09052 | 36188 ft | 447 kts | 319° |
| 2026-04-26 18:41 | 46.39041 | -1.14692 | 36188 ft | 447 kts | 319° |
| 2026-04-26 18:42 | 46.43889 | -1.20340 | 36185 ft | 447 kts | 319° |
| 2026-04-26 18:42 | 46.48740 | -1.26008 | 36188 ft | 449 kts | 319° |
| 2026-04-26 18:43 | 46.53631 | -1.31744 | 36193 ft | 449 kts | 319° |
| 2026-04-26 18:43 | 46.58491 | -1.37446 | 36206 ft | 449 kts | 319° |
| 2026-04-26 18:44 | 46.62976 | -1.43720 | 36205 ft | 447 kts | 311° |
| 2026-04-26 18:44 | 46.67288 | -1.50240 | 36205 ft | 447 kts | 311° |
| 2026-04-26 18:45 | 46.71592 | -1.56779 | 36205 ft | 447 kts | 311° |
| 2026-04-26 18:45 | 46.75893 | -1.63329 | 36200 ft | 447 kts | 311° |
| 2026-04-26 18:46 | 46.80192 | -1.69889 | 36190 ft | 447 kts | 311° |
| 2026-04-26 18:46 | 46.84492 | -1.76458 | 36184 ft | 448 kts | 311° |
| 2026-04-26 18:47 | 46.88786 | -1.83043 | 36185 ft | 448 kts | 311° |
| 2026-04-26 18:47 | 46.93084 | -1.89640 | 36186 ft | 448 kts | 311° |
| 2026-04-26 18:48 | 46.97378 | -1.96245 | 36192 ft | 448 kts | 311° |
| 2026-04-26 18:48 | 47.01669 | -2.02865 | 36199 ft | 448 kts | 311° |
| 2026-04-26 18:49 | 47.06065 | -2.09434 | 36195 ft | 449 kts | 312° |
| 2026-04-26 18:49 | 47.10481 | -2.15918 | 36196 ft | 449 kts | 312° |
| 2026-04-26 18:50 | 47.14891 | -2.22438 | 36198 ft | 450 kts | 312° |
| 2026-04-26 18:50 | 47.19279 | -2.28997 | 36211 ft | 450 kts | 311° |
| 2026-04-26 18:51 | 47.23655 | -2.35578 | 36204 ft | 450 kts | 311° |
| 2026-04-26 18:51 | 47.28041 | -2.42164 | 36203 ft | 450 kts | 311° |
| 2026-04-26 18:52 | 47.32457 | -2.48800 | 36211 ft | 450 kts | 311° |
| 2026-04-26 18:52 | 47.36838 | -2.55416 | 36214 ft | 451 kts | 311° |
| 2026-04-26 18:53 | 47.41224 | -2.62052 | 36202 ft | 452 kts | 311° |
| 2026-04-26 18:53 | 47.45615 | -2.68708 | 36198 ft | 452 kts | 311° |
| 2026-04-26 18:54 | 47.50006 | -2.75383 | 36200 ft | 453 kts | 311° |
| 2026-04-26 18:54 | 47.54391 | -2.82065 | 36200 ft | 453 kts | 311° |
| 2026-04-26 18:55 | 47.59427 | -2.87741 | 36203 ft | 462 kts | 329° |
| 2026-04-26 18:55 | 47.62408 | -2.89572 | 36201 ft | 466 kts | 340° |
| 2026-04-26 18:55 | 47.65556 | -2.90791 | 36199 ft | 468 kts | 342° |
| 2026-04-26 18:56 | 47.71878 | -2.93146 | 36199 ft | 469 kts | 342° |
| 2026-04-26 18:56 | 47.78206 | -2.95523 | 36215 ft | 470 kts | 342° |
| 2026-04-26 18:57 | 47.83521 | -2.97522 | 36195 ft | 471 kts | 342° |
| 2026-04-26 18:57 | 47.90957 | -3.00309 | 36190 ft | 472 kts | 342° |
| 2026-04-26 18:58 | 47.97325 | -3.02715 | 36203 ft | 472 kts | 342° |
| 2026-04-26 18:58 | 48.03705 | -3.05131 | 36200 ft | 473 kts | 342° |
| 2026-04-26 18:59 | 48.10090 | -3.07548 | 36197 ft | 474 kts | 342° |
| 2026-04-26 18:59 | 48.16480 | -3.09978 | 36190 ft | 474 kts | 342° |
| 2026-04-26 19:00 | 48.22873 | -3.12414 | 36205 ft | 474 kts | 342° |
| 2026-04-26 19:00 | 48.29274 | -3.14860 | 36202 ft | 475 kts | 342° |
| 2026-04-26 19:01 | 48.35686 | -3.17319 | 36211 ft | 475 kts | 342° |
| 2026-04-26 19:01 | 48.42086 | -3.19784 | 36215 ft | 475 kts | 342° |
| 2026-04-26 19:02 | 48.48496 | -3.22249 | 36213 ft | 476 kts | 342° |
| 2026-04-26 19:02 | 48.53873 | -3.24317 | 36223 ft | 476 kts | 342° |
| 2026-04-26 19:03 | 48.61379 | -3.27213 | 36238 ft | 476 kts | 342° |
| 2026-04-26 19:03 | 48.67804 | -3.29706 | 36229 ft | 477 kts | 342° |
| 2026-04-26 19:04 | 48.74231 | -3.32204 | 36230 ft | 477 kts | 342° |
| 2026-04-26 19:04 | 48.80665 | -3.34710 | 36228 ft | 477 kts | 342° |
| 2026-04-26 19:05 | 48.90313 | -3.38505 | 36226 ft | 477 kts | 342° |
| 2026-04-26 19:06 | 48.96743 | -3.41036 | 36228 ft | 478 kts | 342° |
| 2026-04-26 19:06 | 49.03182 | -3.43564 | 36238 ft | 478 kts | 342° |
| 2026-04-26 19:07 | 49.09614 | -3.46102 | 36233 ft | 478 kts | 342° |
| 2026-04-26 19:07 | 49.16043 | -3.48646 | 36231 ft | 478 kts | 342° |
| 2026-04-26 19:08 | 49.22482 | -3.51202 | 36237 ft | 478 kts | 342° |
| 2026-04-26 19:08 | 49.27874 | -3.53356 | 36244 ft | 478 kts | 342° |
| 2026-04-26 19:09 | 49.34238 | -3.56250 | 36265 ft | 475 kts | 336° |
| 2026-04-26 19:09 | 49.40450 | -3.59795 | 36230 ft | 477 kts | 336° |
| 2026-04-26 19:10 | 49.46686 | -3.63345 | 36220 ft | 478 kts | 336° |
| 2026-04-26 19:10 | 49.52936 | -3.66910 | 36224 ft | 480 kts | 336° |
| 2026-04-26 19:11 | 49.59192 | -3.70515 | 36236 ft | 480 kts | 336° |
| 2026-04-26 19:11 | 49.65459 | -3.74127 | 36240 ft | 481 kts | 338° |
| 2026-04-26 19:12 | 49.72078 | -3.76012 | 36255 ft | 489 kts | 356° |
| 2026-04-26 19:12 | 49.78896 | -3.75345 | 36252 ft | 491 kts | 2° |
| 2026-04-26 19:13 | 49.85713 | -3.74525 | 36251 ft | 491 kts | 2° |
| 2026-04-26 19:13 | 49.92532 | -3.73728 | 36262 ft | 492 kts | 2° |
| 2026-04-26 19:14 | 49.99404 | -3.72932 | 36259 ft | 492 kts | 2° |
| 2026-04-26 19:14 | 50.06234 | -3.72115 | 36259 ft | 492 kts | 2° |
| 2026-04-26 19:15 | 50.13057 | -3.71289 | 36263 ft | 492 kts | 2° |
| 2026-04-26 19:15 | 50.19884 | -3.70476 | 36274 ft | 492 kts | 2° |
| 2026-04-26 19:16 | 50.26716 | -3.69656 | 36276 ft | 493 kts | 2° |
| 2026-04-26 19:16 | 50.33557 | -3.68824 | 36278 ft | 493 kts | 2° |
| 2026-04-26 19:17 | 50.40392 | -3.67991 | 36290 ft | 492 kts | 2° |
| 2026-04-26 19:17 | 50.47201 | -3.66974 | 36294 ft | 492 kts | 4° |
| 2026-04-26 19:18 | 50.54024 | -3.65595 | 36292 ft | 491 kts | 5° |
| 2026-04-26 19:18 | 50.60808 | -3.64172 | 36300 ft | 491 kts | 5° |
| 2026-04-26 19:19 | 50.67586 | -3.62854 | 36289 ft | 491 kts | 4° |
| 2026-04-26 19:19 | 50.74375 | -3.61586 | 36286 ft | 491 kts | 4° |
| 2026-04-26 19:20 | 50.81151 | -3.60301 | 36281 ft | 491 kts | 4° |
| 2026-04-26 19:20 | 50.87927 | -3.59000 | 36291 ft | 491 kts | 5° |
| 2026-04-26 19:21 | 50.94706 | -3.57685 | 36286 ft | 490 kts | 5° |
| 2026-04-26 19:21 | 51.01518 | -3.56351 | 36281 ft | 490 kts | 5° |
| 2026-04-26 19:22 | 51.08295 | -3.55021 | 36280 ft | 490 kts | 5° |
| 2026-04-26 19:22 | 51.15064 | -3.53703 | 36282 ft | 490 kts | 4° |
| 2026-04-26 19:23 | 51.21837 | -3.52393 | 36277 ft | 490 kts | 4° |
| 2026-04-26 19:23 | 51.28616 | -3.51068 | 36295 ft | 490 kts | 4° |
| 2026-04-26 19:24 | 51.35426 | -3.49726 | 36292 ft | 490 kts | 4° |
| 2026-04-26 19:24 | 51.45591 | -3.47721 | 36288 ft | 490 kts | 4° |
| 2026-04-26 19:25 | 51.51213 | -3.46603 | 36285 ft | 490 kts | 4° |
| 2026-04-26 19:25 | 51.59123 | -3.45031 | 36296 ft | 490 kts | 4° |
| 2026-04-26 19:26 | 51.65897 | -3.43679 | 36292 ft | 490 kts | 4° |
| 2026-04-26 19:26 | 51.72705 | -3.42320 | 36292 ft | 490 kts | 4° |
| 2026-04-26 19:27 | 51.79462 | -3.40958 | 36296 ft | 490 kts | 4° |
| 2026-04-26 19:27 | 51.86228 | -3.39600 | 35901 ft | 490 kts | 4° |
| 2026-04-26 19:28 | 51.89597 | -3.38923 | 35621 ft | 486 kts | 4° |
| 2026-04-26 19:28 | 51.92969 | -3.38252 | 34852 ft | 492 kts | 3° |
| 2026-04-26 19:28 | 51.96384 | -3.37748 | 34166 ft | 490 kts | 0° |
| 2026-04-26 19:28 | 51.99784 | -3.37436 | 33392 ft | 488 kts | 359° |
| 2026-04-26 19:29 | 52.03185 | -3.37253 | 32435 ft | 491 kts | 358° |
| 2026-04-26 19:29 | 52.06602 | -3.37124 | 31507 ft | 493 kts | 358° |
| 2026-04-26 19:29 | 52.10025 | -3.36989 | 30396 ft | 492 kts | 359° |
| 2026-04-26 19:29 | 52.13452 | -3.36815 | 29001 ft | 492 kts | 359° |
| 2026-04-26 19:30 | 52.16853 | -3.36596 | 27989 ft | 485 kts | 0° |
| 2026-04-26 19:30 | 52.20170 | -3.36343 | 27324 ft | 472 kts | 0° |
| 2026-04-26 19:30 | 52.23432 | -3.36076 | 26603 ft | 467 kts | 0° |
| 2026-04-26 19:30 | 52.25619 | -3.35898 | 26135 ft | 464 kts | 0° |
| 2026-04-26 19:31 | 52.29898 | -3.35567 | 25196 ft | 457 kts | 0° |
| 2026-04-26 19:31 | 52.33065 | -3.35331 | 24504 ft | 453 kts | 0° |
| 2026-04-26 19:31 | 52.36197 | -3.35101 | 23810 ft | 449 kts | 0° |
| 2026-04-26 19:31 | 52.39303 | -3.34877 | 23068 ft | 444 kts | 0° |
| 2026-04-26 19:32 | 52.42358 | -3.34656 | 22427 ft | 436 kts | 0° |
| 2026-04-26 19:32 | 52.45371 | -3.34435 | 21798 ft | 430 kts | 0° |
| 2026-04-26 19:32 | 52.48340 | -3.34214 | 21200 ft | 424 kts | 0° |
| 2026-04-26 19:32 | 52.51265 | -3.33993 | 20615 ft | 419 kts | 0° |
| 2026-04-26 19:33 | 52.54158 | -3.33773 | 20053 ft | 414 kts | 0° |
| 2026-04-26 19:33 | 52.57017 | -3.33558 | 19495 ft | 409 kts | 0° |
| 2026-04-26 19:33 | 52.59849 | -3.33346 | 18936 ft | 406 kts | 0° |
| 2026-04-26 19:33 | 52.62652 | -3.32914 | 18328 ft | 404 kts | 8° |
| 2026-04-26 19:34 | 52.65368 | -3.31718 | 17587 ft | 405 kts | 18° |
| 2026-04-26 19:34 | 52.68018 | -3.30140 | 16841 ft | 404 kts | 18° |
| 2026-04-26 19:34 | 52.70656 | -3.28569 | 16097 ft | 403 kts | 18° |
| 2026-04-26 19:34 | 52.73290 | -3.27001 | 15373 ft | 401 kts | 19° |
| 2026-04-26 19:35 | 52.75898 | -3.25448 | 14762 ft | 396 kts | 19° |
| 2026-04-26 19:35 | 52.78485 | -3.23898 | 14086 ft | 393 kts | 20° |
| 2026-04-26 19:35 | 52.81034 | -3.22364 | 13394 ft | 388 kts | 20° |
| 2026-04-26 19:35 | 52.83559 | -3.20840 | 12650 ft | 384 kts | 20° |
| 2026-04-26 19:36 | 52.86058 | -3.19332 | 12034 ft | 378 kts | 19° |
| 2026-04-26 19:36 | 52.86884 | -3.18835 | 11977 ft | 372 kts | 19° |
| 2026-04-26 19:36 | 52.90880 | -3.17266 | 11762 ft | 342 kts | 2° |
| 2026-04-26 19:36 | 52.92461 | -3.17150 | 11678 ft | 332 kts | 1° |
| 2026-04-26 19:37 | 52.94727 | -3.16981 | 11554 ft | 321 kts | 1° |
| 2026-04-26 19:37 | 52.96924 | -3.16807 | 11296 ft | 314 kts | 2° |
| 2026-04-26 19:37 | 52.99145 | -3.16617 | 10714 ft | 320 kts | 2° |
| 2026-04-26 19:37 | 53.01335 | -3.16424 | 10592 ft | 310 kts | 2° |
| 2026-04-26 19:38 | 53.03449 | -3.16233 | 10465 ft | 299 kts | 2° |
| 2026-04-26 19:38 | 53.05496 | -3.16046 | 10340 ft | 290 kts | 2° |
| 2026-04-26 19:38 | 53.07475 | -3.15861 | 10213 ft | 281 kts | 2° |
| 2026-04-26 19:38 | 53.09415 | -3.15677 | 9953 ft | 278 kts | 2° |
| 2026-04-26 19:39 | 53.11339 | -3.15491 | 9636 ft | 276 kts | 2° |
| 2026-04-26 19:39 | 53.13273 | -3.15302 | 9312 ft | 275 kts | 2° |
| 2026-04-26 19:39 | 53.15179 | -3.15115 | 8994 ft | 273 kts | 2° |
| 2026-04-26 19:39 | 53.17072 | -3.14929 | 8678 ft | 272 kts | 2° |
| 2026-04-26 19:40 | 53.18957 | -3.14742 | 8368 ft | 271 kts | 2° |
| 2026-04-26 19:40 | 53.20835 | -3.14555 | 8061 ft | 270 kts | 2° |
| 2026-04-26 19:40 | 53.22707 | -3.14366 | 7738 ft | 269 kts | 2° |
| 2026-04-26 19:40 | 53.24575 | -3.14174 | 7431 ft | 268 kts | 2° |
| 2026-04-26 19:41 | 53.26437 | -3.13985 | 7140 ft | 267 kts | 2° |
| 2026-04-26 19:41 | 53.28289 | -3.13798 | 6851 ft | 266 kts | 2° |
| 2026-04-26 19:41 | 53.30133 | -3.13614 | 6555 ft | 265 kts | 2° |
| 2026-04-26 19:41 | 53.31367 | -3.13386 | 6331 ft | 265 kts | 13° |
| 2026-04-26 19:42 | 53.33391 | -3.11254 | 5960 ft | 262 kts | 53° |
| 2026-04-26 19:42 | 53.34090 | -3.08571 | 5813 ft | 244 kts | 85° |
| 2026-04-26 19:42 | 53.33896 | -3.05885 | 5521 ft | 228 kts | 117° |
| 2026-04-26 19:42 | 53.33074 | -3.03648 | 5170 ft | 225 kts | 128° |
| 2026-04-26 19:43 | 53.32142 | -3.01558 | 4803 ft | 223 kts | 130° |
| 2026-04-26 19:43 | 53.31193 | -2.99515 | 4411 ft | 221 kts | 130° |
| 2026-04-26 19:43 | 53.30254 | -2.97490 | 3953 ft | 220 kts | 130° |
| 2026-04-26 19:43 | 53.29311 | -2.95482 | 3493 ft | 219 kts | 130° |
| 2026-04-26 19:44 | 53.28363 | -2.93504 | 3040 ft | 218 kts | 130° |
| 2026-04-26 19:44 | 53.27415 | -2.91529 | 2644 ft | 218 kts | 130° |
| 2026-04-26 19:44 | 53.26461 | -2.89558 | 2303 ft | 218 kts | 130° |
| 2026-04-26 19:44 | 53.25499 | -2.87556 | 2056 ft | 217 kts | 123° |
| 2026-04-26 19:45 | 53.25019 | -2.85180 | 2009 ft | 220 kts | 96° |
| 2026-04-26 19:45 | 53.24931 | -2.82627 | 2009 ft | 220 kts | 90° |
| 2026-04-26 19:45 | 53.24900 | -2.80082 | 2027 ft | 219 kts | 90° |
| 2026-04-26 19:45 | 53.24875 | -2.77532 | 2027 ft | 220 kts | 90° |
| 2026-04-26 19:46 | 53.24852 | -2.74982 | 2021 ft | 220 kts | 90° |
| 2026-04-26 19:46 | 53.24829 | -2.72420 | 2023 ft | 220 kts | 90° |
| 2026-04-26 19:46 | 53.24810 | -2.69867 | 2021 ft | 220 kts | 90° |
| 2026-04-26 19:46 | 53.24793 | -2.67319 | 2021 ft | 220 kts | 90° |
| 2026-04-26 19:47 | 53.24771 | -2.64763 | 2018 ft | 220 kts | 90° |
| 2026-04-26 19:47 | 53.24754 | -2.63036 | 2019 ft | 220 kts | 90° |
| 2026-04-26 19:47 | 53.24949 | -2.59711 | 2015 ft | 218 kts | 64° |
| 2026-04-26 19:47 | 53.25912 | -2.57826 | 2017 ft | 215 kts | 28° |
| 2026-04-26 19:48 | 53.27329 | -2.57208 | 2018 ft | 212 kts | 357° |
| 2026-04-26 19:48 | 53.28825 | -2.57425 | 2020 ft | 214 kts | 351° |
| 2026-04-26 19:48 | 53.30220 | -2.58159 | 2017 ft | 212 kts | 324° |
| 2026-04-26 19:48 | 53.31198 | -2.59969 | 2021 ft | 212 kts | 303° |
| 2026-04-26 19:49 | 53.31957 | -2.61994 | 2009 ft | 198 kts | 301° |
| 2026-04-26 19:49 | 53.32642 | -2.63915 | 2024 ft | 187 kts | 300° |
| 2026-04-26 19:49 | 53.33302 | -2.65768 | 2030 ft | 183 kts | 300° |
| 2026-04-26 19:49 | 53.33904 | -2.67616 | 1927 ft | 180 kts | 289° |
| 2026-04-26 19:50 | 53.34058 | -2.69632 | 1716 ft | 173 kts | 267° |
| 2026-04-26 19:50 | 53.33971 | -2.71538 | 1488 ft | 157 kts | 265° |
| 2026-04-26 19:50 | 53.33892 | -2.73278 | 1289 ft | 143 kts | 267° |
| 2026-04-26 19:50 | 53.33819 | -2.74901 | 1113 ft | 138 kts | 268° |
| 2026-04-26 19:51 | 53.33748 | -2.76486 | 926 ft | 136 kts | 269° |
| 2026-04-26 19:51 | 53.33677 | -2.78053 | 744 ft | 134 kts | 269° |
| 2026-04-26 19:51 | 53.33607 | -2.79601 | 574 ft | 132 kts | 268° |
| 2026-04-26 19:51 | 53.33537 | -2.81165 | 393 ft | 135 kts | 270° |
| 2026-04-26 19:52 | 53.33468 | -2.82698 | 186 ft | 130 kts | 266° |
| 2026-04-26 19:52 | 53.33403 | -2.84164 | 80 ft | 117 kts | 265° |
| 2026-04-26 19:52 | 53.33359 | -2.85081 | 81 ft | 35 kts | 266° |
| 2026-04-26 19:52 | 53.33386 | -2.85370 | 86 ft | 25 kts | 292° |
| 2026-04-26 19:53 | 53.33437 | -2.85579 | 80 ft | 15 kts | 292° |
| 2026-04-26 19:53 | 53.33463 | -2.85688 | 83 ft | 9 kts | 291° |
| 2026-04-26 19:53 | 53.33486 | -2.85793 | 88 ft | 10 kts | 284° |
| 2026-04-26 19:53 | 53.33485 | -2.85933 | 85 ft | 14 kts | 265° |
| 2026-04-26 19:54 | 53.33476 | -2.86112 | 84 ft | 15 kts | 265° |
| 2026-04-26 19:54 | 53.33470 | -2.86250 | 85 ft | 11 kts | 265° |
| 2026-04-26 19:54 | 53.33528 | -2.86318 | 85 ft | 13 kts | 5° |
| 2026-04-26 19:54 | 53.33587 | -2.86242 | 88 ft | 9 kts | 37° |
| 2026-04-26 19:55 | 53.33633 | -2.86240 | 89 ft | 4 kts | 355° |
| 2026-04-26 19:55 | 53.33645 | -2.86241 | 85 ft | 1 kts | 356° |
| 2026-04-26 19:55 | 53.33650 | -2.86242 | 85 ft | 0 kts | 355° |